Time;durP1;ratioP1;P1;durP2;ratioP2;P2;SDS_P1;SDS_P2;PMS_P1;PMS_P2;Temp;Humidity;BMP_temperature;BMP_pressure;BME280_temperature;BME280_humidity;BME280_pressure;Samples;Min_cycle;Max_cycle;Signal;HPM_P1;HPM_P2
2023/05/18 00:02:09;;;;;;;9.93;2.70;;;5.60;99.90;;;;;;7322315;32;20159;-55
2023/05/18 00:06:11;;;;;;;10.13;2.97;;;5.70;99.90;;;;;;7327513;32;20808;-56
2023/05/18 00:10:12;;;;;;;6.43;2.40;;;5.70;99.90;;;;;;7321822;32;20243;-56
2023/05/18 00:14:14;;;;;;;15.68;2.65;;;5.70;99.90;;;;;;7324510;32;20809;-56
2023/05/18 00:18:16;;;;;;;7.53;2.65;;;5.80;99.90;;;;;;7321202;32;20135;-56
2023/05/18 00:22:18;;;;;;;11.18;3.00;;;5.70;99.90;;;;;;7328722;32;20525;-55
2023/05/18 00:26:19;;;;;;;9.43;2.90;;;5.70;99.90;;;;;;7324112;32;20123;-57
2023/05/18 00:30:24;;;;;;;13.52;2.55;;;5.70;99.90;;;;;;7321048;32;20222;-56
2023/05/18 00:34:26;;;;;;;10.73;3.12;;;5.60;99.90;;;;;;7321288;32;20196;-55
2023/05/18 00:38:27;;;;;;;7.90;2.60;;;5.60;99.90;;;;;;7321288;32;20257;-55
2023/05/18 00:42:29;;;;;;;10.43;2.80;;;5.60;99.90;;;;;;7322597;32;20891;-55
2023/05/18 00:46:31;;;;;;;6.80;2.97;;;5.50;99.90;;;;;;7326241;32;20434;-55
2023/05/18 00:50:34;;;;;;;10.00;3.45;;;5.40;99.90;;;;;;7321868;32;20095;-56
2023/05/18 00:54:35;;;;;;;6.32;3.00;;;5.40;99.90;;;;;;7326362;32;20187;-55
2023/05/18 00:58:38;;;;;;;10.85;4.07;;;5.40;99.90;;;;;;7322117;32;20178;-55
2023/05/18 01:02:44;;;;;;;12.00;3.90;;;5.30;99.90;;;;;;7319614;32;20210;-56
2023/05/18 01:06:47;;;;;;;11.60;3.87;;;5.30;99.90;;;;;;7313024;32;20125;-55
2023/05/18 01:10:54;;;;;;;11.27;3.75;;;5.30;99.90;;;;;;7320625;32;20100;-55
2023/05/18 01:15:09;;;;;;;10.02;3.90;;;5.50;99.90;;;;;;7318336;32;20678;-55
2023/05/18 01:19:41;;;;;;;10.65;4.55;;;5.50;99.90;;;;;;7320062;32;20469;-56
2023/05/18 01:24:09;;;;;;;16.37;5.07;;;5.40;99.90;;;;;;7320730;32;20488;-56
2023/05/18 01:28:15;;;;;;;14.45;5.95;;;5.40;99.90;;;;;;7321138;32;20117;-55
2023/05/18 01:32:21;;;;;;;15.88;6.97;;;5.30;99.90;;;;;;7321434;32;20210;-55
2023/05/18 01:36:23;;;;;;;16.83;6.25;;;5.20;99.90;;;;;;7323543;32;20210;-56
2023/05/18 01:40:27;;;;;;;9.93;4.93;;;5.20;99.90;;;;;;7323785;32;20126;-55
2023/05/18 01:44:49;;;;;;;12.68;4.20;;;5.20;99.90;;;;;;7332185;32;20522;-55
2023/05/18 01:48:55;;;;;;;14.82;4.10;;;5.20;99.90;;;;;;7324067;32;20568;-56
2023/05/18 01:53:03;;;;;;;12.52;4.00;;;5.20;99.90;;;;;;7327513;32;20103;-56
2023/05/18 01:57:07;;;;;;;11.23;3.47;;;5.30;99.90;;;;;;7325742;32;20801;-54
2023/05/18 02:01:09;;;;;;;11.43;3.62;;;5.30;99.90;;;;;;7325474;32;20545;-55
2023/05/18 02:05:14;;;;;;;9.85;3.67;;;5.40;99.90;;;;;;7327622;32;20249;-55
2023/05/18 02:09:16;;;;;;;15.15;3.83;;;5.40;99.90;;;;;;7327648;32;20194;-55
2023/05/18 02:13:17;;;;;;;10.95;3.62;;;5.50;99.90;;;;;;7329430;32;20160;-55
2023/05/18 02:17:20;;;;;;;14.32;4.10;;;5.50;99.90;;;;;;7325581;32;20112;-56
2023/05/18 02:21:22;;;;;;;13.20;3.90;;;5.60;99.90;;;;;;7329691;32;20095;-55
2023/05/18 02:25:24;;;;;;;10.88;3.20;;;5.60;99.90;;;;;;7326586;32;20164;-55
2023/05/18 02:29:26;;;;;;;13.02;3.75;;;5.60;99.90;;;;;;7325847;32;20116;-54
2023/05/18 02:33:38;;;;;;;10.55;4.00;;;5.60;99.90;;;;;;7321126;32;20122;-55
2023/05/18 02:37:42;;;;;;;10.60;4.55;;;5.60;99.90;;;;;;7334291;32;20135;-55
2023/05/18 02:41:44;;;;;;;10.98;3.92;;;5.60;99.90;;;;;;7330392;32;20644;-54
2023/05/18 02:45:46;;;;;;;7.05;3.22;;;5.60;99.90;;;;;;7331629;32;20112;-55
2023/05/18 02:49:48;;;;;;;15.10;3.58;;;5.60;99.90;;;;;;7333386;32;20721;-55
2023/05/18 02:53:50;;;;;;;11.68;4.30;;;5.60;99.90;;;;;;7338492;32;20115;-55
2023/05/18 02:57:55;;;;;;;10.65;3.42;;;5.60;99.90;;;;;;7329740;32;20106;-56
2023/05/18 03:01:58;;;;;;;9.45;4.50;;;5.60;99.90;;;;;;7326913;32;20146;-55
2023/05/18 03:06:01;;;;;;;11.40;3.87;;;5.60;99.90;;;;;;7332317;32;20145;-55
2023/05/18 03:10:03;;;;;;;10.48;3.97;;;5.50;99.90;;;;;;7331513;32;20213;-57
2023/05/18 03:14:05;;;;;;;5.93;2.80;;;5.50;99.90;;;;;;7329964;32;20499;-55
2023/05/18 03:18:07;;;;;;;12.90;4.43;;;5.50;99.90;;;;;;7334352;32;20525;-56
2023/05/18 03:22:08;;;;;;;13.62;4.80;;;5.50;99.90;;;;;;7334375;32;20121;-56
2023/05/18 03:26:11;;;;;;;11.23;4.03;;;5.40;99.90;;;;;;7323945;32;20096;-54
2023/05/18 03:30:13;;;;;;;13.70;4.68;;;5.40;99.90;;;;;;7331885;32;20238;-54
2023/05/18 03:34:14;;;;;;;14.50;4.50;;;5.40;99.90;;;;;;7326626;32;20112;-55
2023/05/18 03:38:16;;;;;;;11.35;4.32;;;5.40;99.90;;;;;;7324295;32;20343;-54
2023/05/18 03:42:18;;;;;;;9.88;4.70;;;5.40;99.90;;;;;;7327072;32;20241;-55
2023/05/18 03:46:20;;;;;;;13.70;4.57;;;5.40;99.90;;;;;;7318040;32;20098;-54
2023/05/18 03:50:21;;;;;;;12.20;4.80;;;5.30;99.90;;;;;;7327185;32;20340;-54
2023/05/18 03:54:23;;;;;;;9.93;4.60;;;5.40;99.90;;;;;;7335670;32;20190;-55
2023/05/18 03:58:26;;;;;;;12.20;5.12;;;5.30;99.90;;;;;;7333887;32;20120;-55
2023/05/18 04:02:27;;;;;;;11.02;4.70;;;5.30;99.90;;;;;;7320110;32;20440;-54
2023/05/18 04:06:29;;;;;;;13.82;4.35;;;5.30;99.90;;;;;;7336474;32;20143;-54
2023/05/18 04:10:31;;;;;;;14.13;4.93;;;5.30;99.90;;;;;;7334159;32;20575;-55
2023/05/18 04:14:33;;;;;;;11.40;5.28;;;5.30;99.90;;;;;;7323695;32;20205;-55
2023/05/18 04:18:36;;;;;;;13.00;5.00;;;5.30;99.90;;;;;;7335274;32;20103;-54
2023/05/18 04:22:42;;;;;;;11.70;4.97;;;5.50;99.90;;;;;;7334537;32;20155;-54
2023/05/18 04:26:45;;;;;;;15.00;4.57;;;5.50;99.90;;;;;;7327647;32;20123;-54
2023/05/18 04:30:47;;;;;;;15.95;5.75;;;5.60;99.90;;;;;;7326254;32;20253;-55
2023/05/18 04:34:49;;;;;;;12.27;5.40;;;5.70;99.90;;;;;;7325208;32;20604;-54
2023/05/18 04:38:51;;;;;;;12.77;5.40;;;5.70;99.90;;;;;;7328985;32;20620;-56
2023/05/18 04:42:53;;;;;;;13.45;4.85;;;6.00;99.90;;;;;;7325056;32;20342;-55
2023/05/18 04:46:55;;;;;;;9.90;4.90;;;6.20;99.90;;;;;;7322544;32;20115;-55
2023/05/18 04:50:57;;;;;;;13.65;4.80;;;6.30;99.90;;;;;;7328799;32;20227;-56
2023/05/18 04:54:59;;;;;;;11.73;5.47;;;6.60;99.90;;;;;;7328652;32;20100;-56
2023/05/18 04:59:01;;;;;;;12.57;5.20;;;6.70;99.90;;;;;;7328364;32;20222;-55
2023/05/18 05:03:03;;;;;;;11.75;4.68;;;6.80;99.90;;;;;;7327575;32;20158;-55
2023/05/18 05:07:05;;;;;;;12.88;4.55;;;7.10;99.90;;;;;;7327447;32;20127;-56
2023/05/18 05:11:07;;;;;;;9.80;4.45;;;7.30;99.90;;;;;;7320290;32;20575;-56
2023/05/18 05:15:09;;;;;;;9.63;4.15;;;7.40;99.90;;;;;;7327008;32;20130;-56
2023/05/18 05:19:11;;;;;;;13.18;5.35;;;7.70;99.90;;;;;;7326390;32;20134;-56
2023/05/18 05:23:13;;;;;;;9.63;4.70;;;7.70;99.90;;;;;;7325604;32;20200;-55
2023/05/18 05:27:14;;;;;;;10.02;4.68;;;7.50;99.90;;;;;;7327523;32;20297;-55
2023/05/18 05:31:16;;;;;;;10.80;5.18;;;7.50;99.90;;;;;;7326609;32;20107;-54
2023/05/18 05:35:18;;;;;;;14.70;5.70;;;7.10;99.90;;;;;;7323651;32;20135;-55
2023/05/18 05:39:20;;;;;;;11.05;4.82;;;7.20;99.90;;;;;;7323687;32;20123;-56
2023/05/18 05:43:22;;;;;;;12.75;5.00;;;7.30;99.90;;;;;;7326241;32;20107;-55
2023/05/18 05:47:23;;;;;;;11.52;4.80;;;7.30;99.90;;;;;;7324519;32;20653;-57
2023/05/18 05:51:25;;;;;;;15.30;4.65;;;7.30;99.90;;;;;;7321883;32;20245;-55
2023/05/18 05:55:27;;;;;;;10.80;5.03;;;7.40;99.90;;;;;;7324057;32;20191;-56
2023/05/18 05:59:29;;;;;;;13.32;5.18;;;7.50;99.90;;;;;;7323923;32;20285;-56
2023/05/18 06:03:31;;;;;;;13.57;4.87;;;7.50;99.90;;;;;;7320131;32;20235;-56
2023/05/18 06:07:36;;;;;;;10.15;4.97;;;7.70;99.90;;;;;;7331132;32;20266;-57
2023/05/18 06:11:39;;;;;;;13.75;4.62;;;7.70;99.90;;;;;;7325716;32;20180;-57
2023/05/18 06:15:40;;;;;;;9.60;4.45;;;7.90;99.90;;;;;;7324707;32;20902;-56
2023/05/18 06:19:42;;;;;;;10.18;3.83;;;8.40;99.90;;;;;;7321230;32;20582;-55
2023/05/18 06:23:44;;;;;;;12.45;4.18;;;9.30;99.90;;;;;;7319406;32;20228;-55
2023/05/18 06:27:46;;;;;;;11.15;4.35;;;10.30;99.90;;;;;;7321776;32;20528;-57
2023/05/18 06:31:47;;;;;;;12.25;4.05;;;10.10;99.90;;;;;;7325029;32;20400;-57
2023/05/18 06:35:50;;;;;;;11.90;3.83;;;10.40;99.90;;;;;;7323939;32;20319;-58
2023/05/18 06:39:52;;;;;;;11.70;4.10;;;10.70;99.90;;;;;;7329558;32;20100;-58
2023/05/18 06:43:53;;;;;;;10.65;3.62;;;10.90;99.90;;;;;;7322586;32;20159;-57
2023/05/18 06:47:55;;;;;;;12.60;4.15;;;11.20;99.90;;;;;;7324014;32;20191;-57
2023/05/18 06:51:57;;;;;;;6.50;3.17;;;11.40;99.90;;;;;;7324788;32;20201;-57
2023/05/18 06:55:59;;;;;;;11.77;3.80;;;11.60;99.90;;;;;;7330826;32;20271;-58
2023/05/18 07:00:01;;;;;;;9.65;3.30;;;11.50;99.90;;;;;;7335392;32;20244;-57
2023/05/18 07:04:03;;;;;;;12.60;3.20;;;11.70;99.90;;;;;;7327859;32;20190;-58
2023/05/18 07:08:05;;;;;;;10.70;3.97;;;11.50;99.90;;;;;;7333897;32;20485;-57
2023/05/18 07:12:08;;;;;;;13.20;4.22;;;11.30;99.90;;;;;;7335753;32;20282;-58
2023/05/18 07:16:10;;;;;;;9.43;3.60;;;11.20;99.90;;;;;;7335696;32;20165;-57
2023/05/18 07:20:12;;;;;;;14.38;4.45;;;10.90;99.90;;;;;;7336836;32;20226;-58
2023/05/18 07:24:14;;;;;;;7.95;3.60;;;10.80;99.90;;;;;;7326496;32;20209;-57
2023/05/18 07:28:16;;;;;;;10.75;3.15;;;10.90;99.90;;;;;;7321090;32;20104;-57
2023/05/18 07:32:18;;;;;;;10.82;3.67;;;11.10;99.90;;;;;;7324167;32;20993;-57
2023/05/18 07:36:20;;;;;;;15.13;4.75;;;11.30;99.90;;;;;;7323331;32;20635;-57
2023/05/18 07:40:22;;;;;;;13.27;3.70;;;11.50;99.90;;;;;;7328783;32;20739;-57
2023/05/18 07:44:24;;;;;;;11.23;3.37;;;10.80;99.90;;;;;;7328565;32;20593;-57
2023/05/18 07:48:26;;;;;;;14.43;3.72;;;10.90;99.90;;;;;;7324802;32;20116;-57
2023/05/18 07:52:27;;;;;;;11.45;3.33;;;10.80;99.90;;;;;;7335049;32;20289;-57
2023/05/18 07:56:30;;;;;;;9.52;3.28;;;11.00;99.90;;;;;;7331492;32;20141;-57
2023/05/18 08:00:32;;;;;;;13.73;3.08;;;11.10;99.90;;;;;;7333217;32;20146;-57
2023/05/18 08:04:34;;;;;;;11.98;2.97;;;11.00;99.90;;;;;;7329483;32;20225;-57
2023/05/18 08:08:36;;;;;;;10.52;3.20;;;11.30;99.90;;;;;;7327457;32;20159;-56
2023/05/18 08:12:38;;;;;;;8.48;2.97;;;11.60;99.90;;;;;;7333659;32;21366;-57
2023/05/18 08:16:40;;;;;;;11.63;2.53;;;11.60;99.90;;;;;;7330182;32;20103;-62
2023/05/18 08:20:42;;;;;;;11.10;2.80;;;11.90;99.90;;;;;;7324333;32;20223;-56
2023/05/18 08:24:44;;;;;;;8.63;2.78;;;12.40;99.90;;;;;;7325110;32;20878;-57
2023/05/18 08:28:47;;;;;;;11.18;4.03;;;13.40;99.90;;;;;;7325342;32;20884;-56
2023/05/18 08:32:49;;;;;;;11.02;3.00;;;13.50;99.90;;;;;;7322323;32;20183;-57
2023/05/18 08:36:51;;;;;;;8.60;2.67;;;13.70;99.90;;;;;;7326855;32;20176;-57
2023/05/18 08:41:25;;;;;;;8.85;2.67;;;13.80;99.90;;;;;;7324545;32;20556;-57
2023/05/18 08:46:02;;;;;;;11.35;2.97;;;14.10;99.90;;;;;;7318926;32;20764;-57
2023/05/18 08:50:05;;;;;;;12.27;2.97;;;14.80;99.90;;;;;;7314590;32;20146;-57
2023/05/18 08:54:10;;;;;;;7.40;2.72;;;14.60;99.90;;;;;;7332855;32;20121;-56
2023/05/18 08:58:15;;;;;;;10.32;3.00;;;14.50;99.90;;;;;;7330785;32;20696;-55
2023/05/18 09:02:17;;;;;;;13.48;5.68;;;14.60;99.90;;;;;;7329647;32;20122;-57
2023/05/18 09:06:20;;;;;;;9.38;2.85;;;14.60;99.90;;;;;;7336299;32;20622;-57
2023/05/18 09:10:25;;;;;;;7.50;2.65;;;14.90;99.90;;;;;;7327748;32;20285;-57
2023/05/18 09:14:27;;;;;;;15.18;8.70;;;15.70;99.90;;;;;;7328168;32;20104;-58
2023/05/18 09:18:29;;;;;;;13.57;3.28;;;16.60;98.80;;;;;;7335090;32;20422;-58
2023/05/18 09:22:32;;;;;;;14.05;6.25;;;15.80;94.90;;;;;;7325222;32;20216;-58
2023/05/18 09:26:34;;;;;;;11.85;2.55;;;16.40;98.60;;;;;;7326594;32;20767;-58
2023/05/18 09:30:43;;;;;;;8.32;2.53;;;17.50;96.70;;;;;;7324974;32;20254;-58
2023/05/18 09:34:44;;;;;;;9.27;2.75;;;17.50;92.40;;;;;;7335138;32;20621;-57
2023/05/18 09:38:46;;;;;;;8.32;2.72;;;17.00;95.90;;;;;;7327900;32;20542;-57
2023/05/18 09:42:48;;;;;;;9.23;2.37;;;17.50;93.20;;;;;;7320687;32;20112;-58
2023/05/18 09:46:55;;;;;;;9.63;3.00;;;16.50;93.40;;;;;;7322793;32;20108;-58
2023/05/18 09:50:58;;;;;;;9.82;2.50;;;15.60;98.90;;;;;;7320727;32;20103;-57
2023/05/18 09:55:00;;;;;;;8.05;2.72;;;15.90;99.90;;;;;;7318926;32;20187;-62
2023/05/18 09:59:13;;;;;;;9.93;2.62;;;16.50;97.10;;;;;;7324984;32;20147;-61
2023/05/18 10:03:16;;;;;;;7.85;2.60;;;17.00;96.50;;;;;;7323135;32;20570;-62
2023/05/18 10:07:18;;;;;;;6.65;2.50;;;17.30;95.30;;;;;;7327963;32;20096;-58
2023/05/18 10:11:20;;;;;;;11.18;2.80;;;17.60;92.90;;;;;;7321933;32;20126;-58
2023/05/18 10:15:23;;;;;;;9.38;2.72;;;16.80;94.00;;;;;;7330121;32;20569;-59
2023/05/18 10:19:25;;;;;;;7.70;2.60;;;16.70;96.20;;;;;;7330593;32;20244;-59
2023/05/18 10:23:31;;;;;;;11.27;2.70;;;16.70;92.10;;;;;;7326765;32;20183;-57
2023/05/18 10:27:35;;;;;;;5.28;2.22;;;17.30;93.30;;;;;;7323017;32;20119;-59
2023/05/18 10:31:37;;;;;;;9.45;3.05;;;17.20;95.20;;;;;;7310779;32;20202;-59
2023/05/18 10:35:40;;;;;;;9.35;2.80;;;17.80;92.30;;;;;;7329591;32;20643;-59
2023/05/18 10:39:44;;;;;;;7.65;2.50;;;17.60;93.40;;;;;;7330447;32;20202;-62
2023/05/18 10:43:47;;;;;;;6.00;2.35;;;17.70;92.10;;;;;;7321552;32;20506;-58
2023/05/18 10:47:53;;;;;;;10.05;2.67;;;17.40;90.40;;;;;;7328296;32;20108;-59
2023/05/18 10:51:58;;;;;;;11.40;2.62;;;17.20;92.50;;;;;;7323847;32;20202;-59
2023/05/18 10:56:00;;;;;;;7.43;3.03;;;16.40;90.00;;;;;;7310609;32;20491;-59
2023/05/18 11:00:06;;;;;;;5.43;2.37;;;17.20;92.10;;;;;;7329882;32;20148;-58
2023/05/18 11:04:08;;;;;;;7.00;2.60;;;17.20;90.60;;;;;;7310523;32;20112;-59
2023/05/18 11:08:10;;;;;;;11.75;3.25;;;17.40;92.70;;;;;;7322164;32;20203;-54
2023/05/18 11:12:12;;;;;;;9.77;2.75;;;17.00;88.50;;;;;;7327975;32;20214;-54
2023/05/18 11:16:16;;;;;;;9.93;2.65;;;16.80;90.20;;;;;;7327281;32;20138;-54
2023/05/18 11:20:18;;;;;;;7.50;2.15;;;17.30;91.20;;;;;;7330334;32;20108;-54
2023/05/18 11:24:21;;;;;;;12.00;2.92;;;16.40;91.50;;;;;;7329091;32;20125;-56
2023/05/18 11:28:23;;;;;;;8.68;2.65;;;16.50;91.80;;;;;;7329481;32;20662;-56
2023/05/18 11:32:31;;;;;;;12.57;3.15;;;16.80;90.50;;;;;;7319184;32;20214;-58
2023/05/18 11:36:43;;;;;;;26.70;13.55;;;17.20;91.40;;;;;;7333985;32;20267;-58
2023/05/18 11:40:47;;;;;;;7.68;2.55;;;17.80;90.70;;;;;;7331347;32;20316;-59
2023/05/18 11:44:55;;;;;;;8.73;2.50;;;18.00;87.80;;;;;;7329132;32;20214;-59
2023/05/18 11:49:07;;;;;;;10.30;2.25;;;18.30;85.80;;;;;;7335937;32;20862;-60
2023/05/18 11:53:15;;;;;;;10.05;2.62;;;18.40;87.40;;;;;;7337405;32;20848;-59
2023/05/18 11:57:17;;;;;;;;;;;18.80;83.80;;;;;;7331094;32;20379;-60
2023/05/18 12:01:22;;;;;;;10.13;2.75;;;19.00;84.00;;;;;;7329765;32;20506;-60
2023/05/18 12:05:29;;;;;;;6.07;2.15;;;19.30;81.90;;;;;;7330327;32;20261;-58
2023/05/18 12:09:31;;;;;;;8.25;2.45;;;19.30;81.60;;;;;;7329777;32;20218;-58
2023/05/18 12:13:33;;;;;;;9.02;2.70;;;19.70;76.30;;;;;;7333087;32;20100;-58
2023/05/18 12:17:46;;;;;;;8.80;2.75;;;19.40;78.30;;;;;;7332361;32;20318;-57
2023/05/18 12:21:48;;;;;;;11.05;2.72;;;18.60;77.80;;;;;;7325168;32;20099;-56
2023/05/18 12:25:50;;;;;;;6.97;2.10;;;18.80;79.70;;;;;;7334590;32;20421;-57
2023/05/18 12:29:53;;;;;;;8.32;2.70;;;19.20;82.00;;;;;;7327798;32;20157;-56
2023/05/18 12:33:56;;;;;;;7.37;2.33;;;19.30;76.00;;;;;;7332784;32;20202;-56
2023/05/18 12:38:00;;;;;;;10.77;2.72;;;19.60;77.20;;;;;;7331155;32;20238;-58
2023/05/18 12:42:10;;;;;;;9.85;2.37;;;19.50;74.80;;;;;;7332717;32;20215;-57
2023/05/18 12:46:12;;;;;;;6.07;1.70;;;19.70;78.30;;;;;;7332854;32;20967;-55
2023/05/18 12:50:14;;;;;;;9.75;2.70;;;21.10;78.40;;;;;;7335805;32;20141;-56
2023/05/18 12:54:26;;;;;;;11.27;2.37;;;20.50;74.70;;;;;;7333253;32;20164;-56
2023/05/18 12:58:28;;;;;;;5.37;2.03;;;20.20;76.20;;;;;;7327121;32;20537;-56
2023/05/18 13:02:35;;;;;;;9.05;2.60;;;19.70;73.90;;;;;;7328078;32;20146;-56
2023/05/18 13:06:38;;;;;;;9.15;3.20;;;18.80;75.70;;;;;;7329297;32;20117;-56
2023/05/18 13:10:42;;;;;;;7.40;2.47;;;18.40;79.70;;;;;;7330675;32;20127;-55
2023/05/18 13:14:45;;;;;;;9.88;2.40;;;17.70;81.20;;;;;;7327987;32;20537;-55
2023/05/18 13:18:55;;;;;;;9.77;3.33;;;17.70;84.30;;;;;;7331545;32;20710;-55
2023/05/18 13:23:00;;;;;;;11.10;2.78;;;17.30;81.70;;;;;;7317806;32;20235;-55
2023/05/18 13:27:02;;;;;;;10.30;2.55;;;17.70;82.60;;;;;;7322474;32;20736;-56
2023/05/18 13:31:04;;;;;;;9.15;2.35;;;18.00;80.80;;;;;;7330573;32;20115;-55
2023/05/18 13:35:06;;;;;;;9.25;2.67;;;17.80;83.10;;;;;;7333510;32;20198;-55
2023/05/18 13:39:08;;;;;;;8.93;2.70;;;18.00;80.30;;;;;;7329555;32;20807;-56
2023/05/18 13:43:10;;;;;;;9.02;2.60;;;17.80;81.90;;;;;;7325343;32;20107;-55
2023/05/18 13:47:14;;;;;;;8.57;3.08;;;18.20;85.80;;;;;;7326498;32;20549;-55
2023/05/18 13:51:16;;;;;;;7.57;2.70;;;18.80;81.50;;;;;;7327993;32;20352;-55
2023/05/18 13:55:18;;;;;;;5.70;2.45;;;18.50;79.80;;;;;;7325363;32;20120;-56
2023/05/18 13:59:21;;;;;;;5.90;2.33;;;18.30;80.20;;;;;;7323446;32;20244;-55
2023/05/18 14:03:23;;;;;;;9.25;2.87;;;18.70;80.00;;;;;;7329537;32;20142;-55
2023/05/18 14:07:25;;;;;;;9.73;2.97;;;18.90;78.10;;;;;;7329809;32;20456;-57
2023/05/18 14:11:27;;;;;;;9.10;2.47;;;19.50;77.00;;;;;;7325524;32;20100;-55
2023/05/18 14:15:29;;;;;;;9.57;2.35;;;19.80;77.20;;;;;;7327564;32;20133;-58
2023/05/18 14:19:31;;;;;;;9.40;2.55;;;20.80;76.90;;;;;;7326550;32;20203;-58
2023/05/18 14:23:33;;;;;;;8.10;2.40;;;20.50;73.90;;;;;;7329120;32;20166;-58
2023/05/18 14:27:34;;;;;;;6.55;2.10;;;20.80;72.30;;;;;;7328846;32;20103;-58
2023/05/18 14:31:36;;;;;;;9.73;2.28;;;20.40;76.60;;;;;;7328751;32;20380;-58
2023/05/18 14:35:39;;;;;;;7.82;2.10;;;19.40;76.30;;;;;;7330000;32;20150;-58
2023/05/18 14:39:40;;;;;;;7.00;2.10;;;19.60;77.80;;;;;;7328008;32;20529;-58
2023/05/18 14:43:44;;;;;;;8.52;2.72;;;20.20;74.40;;;;;;7336444;32;20639;-57
2023/05/18 14:47:46;;;;;;;7.57;2.45;;;20.70;73.20;;;;;;7330305;32;20194;-57
2023/05/18 14:51:48;;;;;;;6.03;1.83;;;20.90;70.50;;;;;;7330542;32;20235;-57
2023/05/18 14:55:53;;;;;;;10.80;2.70;;;19.60;72.80;;;;;;7329403;32;20130;-59
2023/05/18 14:59:59;;;;;;;11.00;2.05;;;19.60;72.70;;;;;;7334421;32;20178;-55
2023/05/18 15:04:01;;;;;;;6.82;2.33;;;18.50;79.70;;;;;;7334320;32;20229;-59
2023/05/18 15:08:03;;;;;;;7.10;2.30;;;18.80;79.40;;;;;;7315057;32;20103;-59
2023/05/18 15:12:05;;;;;;;6.20;2.03;;;18.80;78.40;;;;;;7322043;32;20146;-59
2023/05/18 15:16:07;;;;;;;9.10;1.87;;;18.70;80.10;;;;;;7330769;32;20257;-59
2023/05/18 15:20:10;;;;;;;9.13;2.00;;;18.10;81.00;;;;;;7337331;32;20430;-59
2023/05/18 15:24:11;;;;;;;7.93;2.00;;;17.80;83.20;;;;;;7329308;32;20995;-58
2023/05/18 15:28:13;;;;;;;7.20;1.95;;;17.90;83.40;;;;;;7336139;32;20520;-58
2023/05/18 15:32:15;;;;;;;11.32;2.42;;;17.50;84.00;;;;;;7333562;32;20107;-57
2023/05/18 15:36:17;;;;;;;9.80;2.30;;;17.10;83.60;;;;;;7327805;32;20339;-57
2023/05/18 15:40:19;;;;;;;11.60;2.50;;;16.30;86.10;;;;;;7341826;32;20107;-57
2023/05/18 15:44:21;;;;;;;8.82;2.33;;;16.40;88.90;;;;;;7328317;32;20115;-58
2023/05/18 15:48:22;;;;;;;10.82;2.45;;;16.50;88.50;;;;;;7327195;32;20294;-57
2023/05/18 15:52:24;;;;;;;10.90;2.28;;;16.60;89.70;;;;;;7331155;32;20815;-57
2023/05/18 15:56:26;;;;;;;7.62;2.72;;;16.50;89.40;;;;;;7334503;32;20241;-58
2023/05/18 16:00:29;;;;;;;8.80;2.53;;;16.40;88.50;;;;;;7335184;32;20119;-57
2023/05/18 16:04:31;;;;;;;7.90;2.50;;;16.40;88.20;;;;;;7332871;32;20183;-58
2023/05/18 16:08:32;;;;;;;7.85;2.22;;;16.40;88.40;;;;;;7332494;32;20634;-57
2023/05/18 16:12:34;;;;;;;6.95;1.87;;;16.20;89.40;;;;;;7329762;32;20190;-56
2023/05/18 16:16:36;;;;;;;9.93;1.90;;;16.30;90.00;;;;;;7332504;32;20206;-56
2023/05/18 16:20:38;;;;;;;8.77;2.42;;;16.40;89.60;;;;;;7331515;32;20099;-57
2023/05/18 16:24:40;;;;;;;9.27;2.22;;;16.30;91.30;;;;;;7333850;32;20313;-57
2023/05/18 16:28:42;;;;;;;7.90;1.85;;;16.10;91.20;;;;;;7329334;32;20103;-56
2023/05/18 16:32:43;;;;;;;9.02;2.62;;;16.00;90.80;;;;;;7328132;32;20589;-56
2023/05/18 16:36:45;;;;;;;8.88;2.40;;;15.90;90.90;;;;;;7321422;32;20112;-57
2023/05/18 16:40:47;;;;;;;8.50;2.35;;;15.70;91.40;;;;;;7329810;32;20277;-57
2023/05/18 16:44:49;;;;;;;9.85;2.20;;;15.70;91.00;;;;;;7314084;32;20327;-58
2023/05/18 16:48:51;;;;;;;7.07;1.98;;;15.70;92.10;;;;;;7316891;32;20214;-58
2023/05/18 16:52:52;;;;;;;9.68;2.12;;;15.70;91.50;;;;;;7324445;32;20611;-57
2023/05/18 16:56:55;;;;;;;8.35;2.30;;;15.70;91.80;;;;;;7324487;32;20221;-57
2023/05/18 17:00:57;;;;;;;10.18;2.33;;;15.60;91.60;;;;;;7335162;32;20224;-57
2023/05/18 17:04:59;;;;;;;8.57;2.25;;;15.60;92.60;;;;;;7324142;32;20107;-58
2023/05/18 17:09:00;;;;;;;10.18;2.45;;;15.50;92.70;;;;;;7329935;32;20160;-57
2023/05/18 17:13:05;;;;;;;8.35;2.20;;;15.50;92.60;;;;;;7341858;32;20246;-57
2023/05/18 17:17:07;;;;;;;10.80;2.35;;;15.50;92.90;;;;;;7329718;32;20217;-58
2023/05/18 17:21:09;;;;;;;5.95;1.85;;;15.40;92.50;;;;;;7331775;32;20118;-57
2023/05/18 17:25:11;;;;;;;6.07;1.95;;;15.50;93.80;;;;;;7337380;32;20134;-58
2023/05/18 17:29:13;;;;;;;8.80;2.37;;;15.50;93.60;;;;;;7332433;32;20103;-57
2023/05/18 17:33:18;;;;;;;6.80;1.60;;;15.30;94.10;;;;;;7329736;32;20272;-57
2023/05/18 17:37:20;;;;;;;8.50;1.90;;;15.20;94.50;;;;;;7335676;32;20123;-58
2023/05/18 17:41:24;;;;;;;12.90;2.30;;;15.30;93.80;;;;;;7330502;32;20610;-58
2023/05/18 17:45:26;;;;;;;11.55;1.90;;;15.20;93.50;;;;;;7337552;32;20167;-57
2023/05/18 17:49:28;;;;;;;10.57;1.98;;;15.20;93.80;;;;;;7316352;32;20217;-58
2023/05/18 17:53:29;;;;;;;10.88;1.95;;;15.00;94.90;;;;;;7334348;32;20186;-58
2023/05/18 17:57:32;;;;;;;9.02;2.20;;;15.00;94.80;;;;;;7324855;32;20154;-57
2023/05/18 18:01:34;;;;;;;8.02;2.10;;;14.90;96.00;;;;;;7338663;32;20127;-58
2023/05/18 18:05:36;;;;;;;8.50;2.53;;;14.90;95.20;;;;;;7333160;32;20099;-57
2023/05/18 18:09:38;;;;;;;8.00;1.95;;;14.70;95.00;;;;;;7336912;32;20717;-57
2023/05/18 18:13:40;;;;;;;5.82;2.03;;;14.70;96.10;;;;;;7330991;32;20114;-57
2023/05/18 18:17:42;;;;;;;8.77;2.30;;;14.60;97.10;;;;;;7328957;32;20119;-57
2023/05/18 18:21:43;;;;;;;7.57;1.90;;;14.50;97.20;;;;;;7318401;32;20136;-58
2023/05/18 18:25:45;;;;;;;6.25;1.90;;;14.50;98.20;;;;;;7334964;32;20213;-57
2023/05/18 18:29:48;;;;;;;8.73;1.80;;;14.50;97.60;;;;;;7330930;32;20127;-57
2023/05/18 18:33:50;;;;;;;12.98;2.40;;;14.30;98.40;;;;;;7330633;32;20227;-57
2023/05/18 18:37:51;;;;;;;9.98;2.50;;;14.30;98.70;;;;;;7331131;32;20501;-57
2023/05/18 18:41:53;;;;;;;7.12;1.77;;;14.10;99.80;;;;;;7324005;32;20179;-55
2023/05/18 18:45:55;;;;;;;7.15;2.10;;;14.00;99.80;;;;;;7320988;32;20122;-58
2023/05/18 18:49:58;;;;;;;6.15;2.10;;;13.90;99.90;;;;;;7324644;32;20577;-57
2023/05/18 18:53:59;;;;;;;6.62;2.20;;;13.80;99.90;;;;;;7324616;32;20104;-60
2023/05/18 18:58:01;;;;;;;9.02;2.10;;;13.70;99.90;;;;;;7327990;32;20234;-57
2023/05/18 19:02:03;;;;;;;6.25;1.90;;;13.60;99.90;;;;;;7327574;32;20226;-56
2023/05/18 19:06:05;;;;;;;7.47;1.75;;;13.40;99.90;;;;;;7326650;32;20150;-57
2023/05/18 19:10:08;;;;;;;7.75;2.00;;;13.40;99.90;;;;;;7312970;32;20130;-57
2023/05/18 19:14:10;;;;;;;6.65;2.00;;;13.30;99.90;;;;;;7327894;32;20134;-56
2023/05/18 19:18:13;;;;;;;8.40;1.95;;;13.10;99.90;;;;;;7332698;32;20127;-57
2023/05/18 19:22:15;;;;;;;5.78;1.70;;;13.00;99.90;;;;;;7328712;32;20394;-57
2023/05/18 19:26:17;;;;;;;6.97;2.20;;;12.90;99.90;;;;;;7308857;32;20131;-56
2023/05/18 19:30:20;;;;;;;6.97;1.90;;;12.80;99.90;;;;;;7324682;32;20130;-57
2023/05/18 19:34:22;;;;;;;6.45;2.15;;;12.60;99.90;;;;;;7327970;32;20103;-55
2023/05/18 19:38:24;;;;;;;10.52;2.17;;;12.60;99.90;;;;;;7322844;32;20230;-55
2023/05/18 19:42:26;;;;;;;10.60;2.17;;;12.50;99.90;;;;;;7328866;32;20540;-56
2023/05/18 19:46:28;;;;;;;8.10;2.05;;;12.40;99.90;;;;;;7326716;32;20198;-55
2023/05/18 19:50:30;;;;;;;9.48;2.22;;;12.40;99.90;;;;;;7310363;32;20984;-56
2023/05/18 19:54:32;;;;;;;9.30;2.05;;;12.30;99.90;;;;;;7323751;32;20218;-56
2023/05/18 19:58:35;;;;;;;8.15;2.28;;;12.10;99.90;;;;;;7325757;32;20107;-55
2023/05/18 20:02:36;;;;;;;5.95;2.20;;;12.10;99.90;;;;;;7323233;32;20118;-55
2023/05/18 20:06:38;;;;;;;8.23;2.10;;;12.00;99.90;;;;;;7332370;32;20694;-56
2023/05/18 20:10:40;;;;;;;8.35;2.87;;;12.00;99.90;;;;;;7327986;32;20103;-56
2023/05/18 20:14:42;;;;;;;11.32;2.25;;;12.00;99.90;;;;;;7334868;32;20739;-56
2023/05/18 20:18:44;;;;;;;9.98;2.37;;;11.90;99.90;;;;;;7330922;32;20123;-55
2023/05/18 20:22:46;;;;;;;12.23;2.42;;;11.90;99.90;;;;;;7330325;32;20177;-55
2023/05/18 20:26:49;;;;;;;7.87;2.33;;;11.90;99.90;;;;;;7322895;32;20095;-55
2023/05/18 20:30:51;;;;;;;7.60;2.22;;;11.90;99.90;;;;;;7324021;32;20126;-55
2023/05/18 20:34:52;;;;;;;7.37;2.20;;;11.90;99.90;;;;;;7318944;32;20270;-55
2023/05/18 20:38:54;;;;;;;8.98;2.20;;;11.90;99.90;;;;;;7334967;32;20179;-55
2023/05/18 20:42:57;;;;;;;7.57;2.28;;;11.90;99.90;;;;;;7330738;32;20099;-55
2023/05/18 20:46:59;;;;;;;8.98;2.20;;;11.80;99.90;;;;;;7332342;32;20143;-56
2023/05/18 20:51:01;;;;;;;8.60;2.47;;;11.80;99.90;;;;;;7327639;32;20232;-55
2023/05/18 20:55:03;;;;;;;15.32;2.40;;;11.80;99.90;;;;;;7334765;32;20130;-55
2023/05/18 20:59:05;;;;;;;7.85;2.10;;;11.70;99.90;;;;;;7328629;32;20164;-55
2023/05/18 21:03:07;;;;;;;13.95;3.05;;;11.60;99.90;;;;;;7325465;32;20130;-56